Time;durP1;ratioP1;P1;durP2;ratioP2;P2;SDS_P1;SDS_P2;PMS_P1;PMS_P2;Temp;Humidity;BMP_temperature;BMP_pressure;BME280_temperature;BME280_humidity;BME280_pressure;Samples;Min_cycle;Max_cycle;Signal;HPM_P1;HPM_P2
2021/09/08 00:02:14;;;;;;;13.67;11.70;;;17.30;99.90;;;;;;5058190;28;20424;-71
2021/09/08 00:04:39;;;;;;;13.10;11.20;;;17.30;99.90;;;;;;5057618;28;20410;-71
2021/09/08 00:07:05;;;;;;;13.47;11.03;;;17.30;99.90;;;;;;5039590;28;20546;-71
2021/09/08 00:09:30;;;;;;;14.87;12.07;;;17.20;99.90;;;;;;5058115;28;20181;-72
2021/09/08 00:11:56;;;;;;;15.40;11.77;;;17.20;99.90;;;;;;5057790;28;20549;-71
2021/09/08 00:14:21;;;;;;;13.70;11.10;;;17.10;99.90;;;;;;5058159;28;20213;-71
2021/09/08 00:16:48;;;;;;;12.90;10.87;;;17.10;99.90;;;;;;5057049;28;20535;-71
2021/09/08 00:19:13;;;;;;;14.70;10.60;;;17.10;99.90;;;;;;5057919;28;20538;-71
2021/09/08 00:21:39;;;;;;;11.93;10.73;;;17.10;99.90;;;;;;5059204;28;20435;-71
2021/09/08 00:24:04;;;;;;;12.43;10.97;;;17.00;99.90;;;;;;5057804;28;20174;-71
2021/09/08 00:26:30;;;;;;;12.13;10.33;;;17.00;99.90;;;;;;5057128;28;20178;-71
2021/09/08 00:28:55;;;;;;;12.03;10.27;;;17.00;99.90;;;;;;5057598;28;20189;-71
2021/09/08 00:31:21;;;;;;;12.50;11.20;;;17.00;99.90;;;;;;5058077;28;20556;-71
2021/09/08 00:33:46;;;;;;;11.57;10.37;;;17.00;99.90;;;;;;5038743;28;20202;-71
2021/09/08 00:36:12;;;;;;;13.93;11.47;;;17.00;99.90;;;;;;5056818;28;20216;-71
2021/09/08 00:38:37;;;;;;;12.13;10.83;;;17.00;99.90;;;;;;5055940;28;20417;-70
2021/09/08 00:41:03;;;;;;;11.80;10.60;;;17.00;99.90;;;;;;5055885;28;20210;-71
2021/09/08 00:43:29;;;;;;;14.77;11.37;;;17.00;99.90;;;;;;5038337;28;20181;-71
2021/09/08 00:45:56;;;;;;;12.43;11.00;;;17.00;99.90;;;;;;5056861;28;20208;-71
2021/09/08 00:48:22;;;;;;;18.67;10.93;;;17.00;99.90;;;;;;5056136;28;20186;-71
2021/09/08 00:50:49;;;;;;;12.70;10.60;;;17.10;99.90;;;;;;5057271;28;20436;-71
2021/09/08 00:53:20;;;;;;;11.80;10.10;;;17.10;99.90;;;;;;5055823;28;20460;-71
2021/09/08 00:55:47;;;;;;;11.57;10.00;;;17.10;99.90;;;;;;5056850;28;20415;-71
2021/09/08 00:58:13;;;;;;;11.60;10.37;;;17.10;99.90;;;;;;5056799;28;20500;-70
2021/09/08 01:00:39;;;;;;;11.77;10.27;;;17.10;99.90;;;;;;5056271;28;20536;-71
2021/09/08 01:03:04;;;;;;;12.90;10.73;;;17.00;99.90;;;;;;5056492;28;20169;-71
2021/09/08 01:05:30;;;;;;;12.33;10.30;;;17.00;99.90;;;;;;5037489;28;20179;-71
2021/09/08 01:07:56;;;;;;;11.90;10.43;;;17.00;99.90;;;;;;5056537;28;20213;-71
2021/09/08 01:10:26;;;;;;;13.77;11.37;;;17.00;99.90;;;;;;5056051;28;20198;-71
2021/09/08 01:12:51;;;;;;;12.90;10.50;;;17.10;99.90;;;;;;5055900;28;21004;-70
2021/09/08 01:15:17;;;;;;;12.97;11.30;;;17.00;99.90;;;;;;5055722;28;20417;-72
2021/09/08 01:17:43;;;;;;;13.03;10.73;;;17.10;99.90;;;;;;5056244;28;20179;-71
2021/09/08 01:20:09;;;;;;;14.77;10.70;;;17.10;99.90;;;;;;5055433;28;20170;-71
2021/09/08 01:22:48;;;;;;;12.53;10.30;;;17.00;99.90;;;;;;5055888;28;20416;-71
2021/09/08 01:25:22;;;;;;;12.83;11.17;;;17.00;99.90;;;;;;5055355;28;20400;-71
2021/09/08 01:27:50;;;;;;;13.07;11.70;;;17.00;99.90;;;;;;5055685;28;20393;-71
2021/09/08 01:30:21;;;;;;;11.20;9.50;;;17.00;99.90;;;;;;5037388;28;20432;-71
2021/09/08 01:32:48;;;;;;;15.10;10.90;;;17.00;99.90;;;;;;5055698;28;20823;-71
2021/09/08 01:35:14;;;;;;;12.37;10.33;;;17.00;99.90;;;;;;5055410;28;20401;-71
2021/09/08 01:37:40;;;;;;;13.50;11.73;;;17.00;99.90;;;;;;5055628;28;20504;-71
2021/09/08 01:40:06;;;;;;;11.30;10.10;;;17.00;99.90;;;;;;5054950;28;20425;-72
2021/09/08 01:42:32;;;;;;;13.77;10.75;;;17.00;99.90;;;;;;5054356;28;20432;-71
2021/09/08 01:44:58;;;;;;;12.50;11.20;;;17.00;99.90;;;;;;5055518;28;20177;-72
2021/09/08 01:47:23;;;;;;;13.20;10.77;;;16.90;99.90;;;;;;5055176;28;20220;-72
2021/09/08 01:49:49;;;;;;;14.60;10.07;;;17.00;99.90;;;;;;5055097;28;20228;-71
2021/09/08 01:52:15;;;;;;;11.50;10.40;;;17.00;99.90;;;;;;5049754;28;20697;-71
2021/09/08 01:54:40;;;;;;;11.40;10.20;;;17.10;99.90;;;;;;5046972;28;20565;-71
2021/09/08 01:57:06;;;;;;;11.60;9.90;;;17.00;99.90;;;;;;5054893;28;20174;-71
2021/09/08 01:59:31;;;;;;;11.80;10.60;;;17.00;99.90;;;;;;5054881;28;20214;-71
2021/09/08 02:01:58;;;;;;;14.10;10.60;;;17.00;99.90;;;;;;5054891;28;20484;-71
2021/09/08 02:04:24;;;;;;;12.77;10.83;;;16.90;99.90;;;;;;5055370;28;20170;-71
2021/09/08 02:06:51;;;;;;;11.60;10.03;;;16.90;99.90;;;;;;5055058;28;20412;-71
2021/09/08 02:09:18;;;;;;;12.20;10.67;;;16.90;99.90;;;;;;5036492;28;20506;-70
2021/09/08 02:11:44;;;;;;;11.40;10.20;;;16.80;99.90;;;;;;5045281;28;20475;-71
2021/09/08 02:14:09;;;;;;;11.57;9.63;;;16.90;99.90;;;;;;5054424;28;20464;-71
2021/09/08 02:16:35;;;;;;;11.87;10.60;;;16.90;99.90;;;;;;5054050;28;20490;-72
2021/09/08 02:19:01;;;;;;;11.88;10.40;;;16.90;99.90;;;;;;5054048;28;20857;-71
2021/09/08 02:21:26;;;;;;;15.00;12.40;;;16.90;99.90;;;;;;5054473;28;20667;-71
2021/09/08 02:23:52;;;;;;;14.07;11.37;;;16.90;99.90;;;;;;5054762;28;20198;-71
2021/09/08 02:26:18;;;;;;;13.17;10.80;;;16.90;99.90;;;;;;5054400;28;20174;-72
2021/09/08 02:28:44;;;;;;;12.23;11.00;;;16.80;99.90;;;;;;5054020;28;20170;-71
2021/09/08 02:31:10;;;;;;;13.77;10.97;;;16.80;99.90;;;;;;5036714;28;20667;-71
2021/09/08 02:33:36;;;;;;;14.97;10.20;;;16.80;99.90;;;;;;5054477;28;20459;-72
2021/09/08 02:36:03;;;;;;;12.90;10.27;;;16.80;99.90;;;;;;5054569;28;20405;-71
2021/09/08 02:38:30;;;;;;;13.37;11.37;;;16.80;99.90;;;;;;5053948;28;20166;-72
2021/09/08 02:40:57;;;;;;;12.07;10.70;;;16.70;99.90;;;;;;5054387;28;20989;-72
2021/09/08 02:43:22;;;;;;;12.30;11.00;;;16.70;99.90;;;;;;5053874;28;20491;-72
2021/09/08 02:45:48;;;;;;;12.20;10.33;;;16.80;99.90;;;;;;5054425;28;20401;-71
2021/09/08 02:48:13;;;;;;;11.80;9.93;;;16.80;99.90;;;;;;5035969;28;20170;-71
2021/09/08 02:50:39;;;;;;;11.17;10.07;;;16.80;99.90;;;;;;5053836;28;20190;-73
2021/09/08 02:53:04;;;;;;;11.37;10.17;;;16.70;99.90;;;;;;5053596;28;20198;-71
2021/09/08 02:55:30;;;;;;;11.80;10.00;;;16.70;99.90;;;;;;5054081;28;20245;-71
2021/09/08 02:57:55;;;;;;;13.87;11.40;;;16.80;99.90;;;;;;5053670;28;20162;-71
2021/09/08 03:00:21;;;;;;;15.10;9.80;;;16.80;99.90;;;;;;5053567;28;20193;-71
2021/09/08 03:02:46;;;;;;;11.37;9.80;;;16.70;99.90;;;;;;5053800;28;20171;-70
2021/09/08 03:05:12;;;;;;;12.77;11.47;;;16.60;99.90;;;;;;5035498;28;20281;-71
2021/09/08 03:07:38;;;;;;;11.47;10.27;;;16.50;99.90;;;;;;5054891;28;20170;-72
2021/09/08 03:10:04;;;;;;;12.40;10.93;;;16.40;99.90;;;;;;5053759;28;20219;-71
2021/09/08 03:12:29;;;;;;;11.87;10.37;;;16.40;99.90;;;;;;5035313;28;20296;-72
2021/09/08 03:14:55;;;;;;;12.80;11.27;;;16.30;99.90;;;;;;5053191;28;20436;-70
2021/09/08 03:17:20;;;;;;;13.07;10.60;;;16.30;99.90;;;;;;5054447;28;20174;-71
2021/09/08 03:19:46;;;;;;;12.27;10.47;;;16.30;99.90;;;;;;5035236;28;20174;-71
2021/09/08 03:22:11;;;;;;;11.30;10.10;;;16.30;99.90;;;;;;5053349;28;20186;-71
2021/09/08 03:24:37;;;;;;;12.30;10.13;;;16.40;99.90;;;;;;5052788;28;20303;-71
2021/09/08 03:27:03;;;;;;;15.40;9.97;;;16.40;99.90;;;;;;5054187;28;20276;-72
2021/09/08 03:29:28;;;;;;;13.53;11.47;;;16.40;99.90;;;;;;5053305;28;20642;-71
2021/09/08 03:31:54;;;;;;;12.33;11.03;;;16.40;99.90;;;;;;5052756;28;20408;-72
2021/09/08 03:34:19;;;;;;;14.43;10.50;;;16.40;99.90;;;;;;5053931;28;20473;-71
2021/09/08 03:36:45;;;;;;;12.07;10.20;;;16.40;99.90;;;;;;5053686;28;20209;-71
2021/09/08 03:39:10;;;;;;;14.60;10.63;;;16.40;99.90;;;;;;5053525;28;20288;-72
2021/09/08 03:41:36;;;;;;;12.27;10.10;;;16.50;99.90;;;;;;5053392;28;20269;-72
2021/09/08 03:44:02;;;;;;;14.53;10.40;;;16.50;99.90;;;;;;5053397;28;20178;-70
2021/09/08 03:46:27;;;;;;;13.63;11.20;;;16.40;99.90;;;;;;5053390;28;20174;-70
2021/09/08 03:48:53;;;;;;;11.60;10.40;;;16.40;99.90;;;;;;5053739;28;20190;-70
2021/09/08 03:51:18;;;;;;;12.70;10.57;;;16.40;99.90;;;;;;5054760;28;20189;-71
2021/09/08 03:53:44;;;;;;;11.23;10.10;;;16.20;99.90;;;;;;5054772;28;20198;-71
2021/09/08 03:56:09;;;;;;;13.00;9.83;;;16.10;99.90;;;;;;5053700;28;20186;-71
2021/09/08 03:58:36;;;;;;;10.83;9.73;;;16.20;99.90;;;;;;5052905;28;20213;-70
2021/09/08 04:01:02;;;;;;;12.17;10.20;;;16.20;99.90;;;;;;5035057;28;20194;-71
2021/09/08 04:03:28;;;;;;;13.80;11.60;;;16.20;99.90;;;;;;5053067;28;20462;-71
2021/09/08 04:05:54;;;;;;;15.10;11.20;;;16.20;99.90;;;;;;5053358;28;20413;-71
2021/09/08 04:08:19;;;;;;;12.33;10.37;;;16.20;99.90;;;;;;5052911;28;20516;-72
2021/09/08 04:10:45;;;;;;;13.17;11.70;;;16.20;99.90;;;;;;5053022;28;20198;-71
2021/09/08 04:13:10;;;;;;;12.57;11.27;;;16.10;99.90;;;;;;5052740;28;20198;-71
2021/09/08 04:15:37;;;;;;;12.57;10.40;;;16.10;99.90;;;;;;5052965;28;20178;-70
2021/09/08 04:18:02;;;;;;;11.97;10.67;;;16.00;99.90;;;;;;5053004;28;20208;-70
2021/09/08 04:20:28;;;;;;;12.60;10.97;;;15.90;99.90;;;;;;5052687;28;20441;-70
2021/09/08 04:22:54;;;;;;;13.97;11.07;;;15.80;99.90;;;;;;5035279;28;20182;-69
2021/09/08 04:25:19;;;;;;;11.27;10.03;;;15.70;99.90;;;;;;5054077;28;20640;-70
2021/09/08 04:27:45;;;;;;;14.70;12.13;;;15.60;99.90;;;;;;5053585;28;20179;-70
2021/09/08 04:30:11;;;;;;;17.50;11.37;;;15.70;99.90;;;;;;5052245;28;20201;-69
2021/09/08 04:32:36;;;;;;;15.60;12.63;;;15.70;99.90;;;;;;5044948;28;20209;-71
2021/09/08 04:35:02;;;;;;;13.13;10.50;;;15.70;99.90;;;;;;5038843;28;20429;-70
2021/09/08 04:37:28;;;;;;;11.93;10.27;;;15.70;99.90;;;;;;5045252;28;20174;-70
2021/09/08 04:39:54;;;;;;;12.70;10.50;;;15.70;99.90;;;;;;5044375;28;20185;-71
2021/09/08 04:42:19;;;;;;;14.13;11.07;;;15.70;99.90;;;;;;5047600;28;20214;-70
2021/09/08 04:44:45;;;;;;;13.23;11.05;;;15.80;99.90;;;;;;5044893;28;20406;-70
2021/09/08 04:47:10;;;;;;;14.97;11.07;;;15.80;99.90;;;;;;5045020;28;20263;-71
2021/09/08 04:49:36;;;;;;;13.30;10.97;;;15.80;99.90;;;;;;5055891;28;20658;-71
2021/09/08 04:52:02;;;;;;;17.30;11.50;;;15.90;99.90;;;;;;5055637;28;20247;-71
2021/09/08 04:54:27;;;;;;;13.37;11.57;;;15.90;99.90;;;;;;5052751;28;20562;-72
2021/09/08 04:56:53;;;;;;;12.30;11.00;;;15.90;99.90;;;;;;5045025;28;20496;-71
2021/09/08 04:59:18;;;;;;;13.97;11.80;;;15.90;99.90;;;;;;5042139;28;20193;-70
2021/09/08 05:01:44;;;;;;;13.53;11.10;;;15.80;99.90;;;;;;5048278;28;20247;-71
2021/09/08 05:04:10;;;;;;;15.60;11.90;;;15.80;99.90;;;;;;5045183;28;20193;-71
2021/09/08 05:06:35;;;;;;;14.80;11.10;;;15.80;99.90;;;;;;5035200;28;20293;-71
2021/09/08 05:09:01;;;;;;;14.00;11.23;;;15.80;99.90;;;;;;5043220;28;20216;-71
2021/09/08 05:11:26;;;;;;;13.73;11.37;;;15.80;99.90;;;;;;5012887;28;20225;-70
2021/09/08 05:13:52;;;;;;;13.50;11.77;;;15.80;99.90;;;;;;5046056;28;20209;-70
2021/09/08 05:16:17;;;;;;;14.93;10.87;;;15.80;99.90;;;;;;5049819;28;20236;-71
2021/09/08 05:18:43;;;;;;;11.57;9.80;;;15.90;99.90;;;;;;5035846;28;20218;-70
2021/09/08 05:21:09;;;;;;;12.33;11.03;;;15.90;99.90;;;;;;5047173;28;20206;-73
2021/09/08 05:23:34;;;;;;;13.83;11.33;;;15.80;99.90;;;;;;5029647;28;20225;-71
2021/09/08 05:26:00;;;;;;;13.47;11.27;;;15.80;99.90;;;;;;5049268;28;20296;-71
2021/09/08 05:28:26;;;;;;;13.03;10.50;;;15.90;99.90;;;;;;5050036;28;20217;-71
2021/09/08 05:30:52;;;;;;;12.37;10.73;;;15.90;99.90;;;;;;5049464;28;20271;-71
2021/09/08 05:33:17;;;;;;;12.60;11.13;;;16.00;99.90;;;;;;5030747;28;20499;-71
2021/09/08 05:35:43;;;;;;;13.57;11.87;;;16.00;99.90;;;;;;5049972;28;20198;-72
2021/09/08 05:38:09;;;;;;;14.80;11.10;;;16.00;99.90;;;;;;5050595;28;20210;-71
2021/09/08 05:40:34;;;;;;;10.53;9.47;;;16.10;99.90;;;;;;5050296;28;20200;-71
2021/09/08 05:43:01;;;;;;;14.17;11.80;;;16.10;99.90;;;;;;5049104;28;21084;-71
2021/09/08 05:45:27;;;;;;;13.00;10.60;;;16.10;99.90;;;;;;5050155;28;20202;-71
2021/09/08 05:47:53;;;;;;;16.60;11.33;;;16.10;99.90;;;;;;5053506;28;20635;-71
2021/09/08 05:50:19;;;;;;;12.63;10.53;;;16.10;99.90;;;;;;5033097;28;20532;-72
2021/09/08 05:52:44;;;;;;;12.27;11.00;;;16.20;99.90;;;;;;5032754;28;20376;-71
2021/09/08 05:55:10;;;;;;;16.10;11.70;;;16.20;99.90;;;;;;5051869;28;20228;-71
2021/09/08 05:57:36;;;;;;;20.83;12.97;;;16.20;99.90;;;;;;5051271;28;20249;-71
2021/09/08 06:00:04;;;;;;;14.67;12.50;;;16.30;99.90;;;;;;5049984;28;20194;-71
2021/09/08 06:02:29;;;;;;;13.37;11.53;;;16.30;99.90;;;;;;5033424;28;20182;-71
2021/09/08 06:04:55;;;;;;;13.97;11.77;;;16.30;99.90;;;;;;5051483;28;20417;-71
2021/09/08 06:07:20;;;;;;;12.63;10.90;;;16.30;99.90;;;;;;5044803;28;20212;-71
2021/09/08 06:09:46;;;;;;;15.13;10.97;;;16.30;99.90;;;;;;5050909;28;20178;-71
2021/09/08 06:12:11;;;;;;;13.67;11.80;;;16.40;99.90;;;;;;5050981;28;20316;-70
2021/09/08 06:14:37;;;;;;;13.90;11.60;;;16.40;99.90;;;;;;5052169;28;20249;-71
2021/09/08 06:17:04;;;;;;;12.83;10.63;;;16.40;99.90;;;;;;5052513;28;20174;-70
2021/09/08 06:19:30;;;;;;;15.63;12.50;;;16.40;99.90;;;;;;5052312;28;20205;-71
2021/09/08 06:21:55;;;;;;;14.63;12.50;;;16.50;99.90;;;;;;5034732;28;20466;-71
2021/09/08 06:24:21;;;;;;;15.17;11.80;;;16.50;99.90;;;;;;5052574;28;21033;-71
2021/09/08 06:26:46;;;;;;;15.97;12.07;;;16.50;99.90;;;;;;5052170;28;20653;-71
2021/09/08 06:29:12;;;;;;;16.13;12.67;;;16.50;99.90;;;;;;5051545;28;20186;-70
2021/09/08 06:31:37;;;;;;;14.67;11.80;;;16.60;99.90;;;;;;5052010;28;20615;-71
2021/09/08 06:34:03;;;;;;;16.53;12.20;;;16.60;99.90;;;;;;5051653;28;20206;-71
2021/09/08 06:36:28;;;;;;;17.00;13.50;;;16.70;99.90;;;;;;5050483;28;20895;-71
2021/09/08 06:38:54;;;;;;;17.33;12.23;;;16.70;99.90;;;;;;5051030;28;20220;-71
2021/09/08 06:41:20;;;;;;;12.50;11.20;;;16.80;99.90;;;;;;5032556;28;20206;-71
2021/09/08 06:43:49;;;;;;;15.17;12.03;;;16.80;99.90;;;;;;5051123;28;20273;-71
2021/09/08 06:46:15;;;;;;;15.00;12.67;;;16.90;99.90;;;;;;5050890;28;20198;-71
2021/09/08 06:48:40;;;;;;;13.60;12.17;;;16.90;99.90;;;;;;5050791;28;20524;-71
2021/09/08 06:51:06;;;;;;;16.93;12.63;;;17.00;99.90;;;;;;5050475;28;20535;-71
2021/09/08 06:53:31;;;;;;;15.10;13.50;;;17.00;99.90;;;;;;5050539;28;20238;-72
2021/09/08 06:55:57;;;;;;;16.30;13.30;;;17.10;99.90;;;;;;5051037;28;20261;-71
2021/09/08 06:58:22;;;;;;;16.83;13.87;;;17.10;99.90;;;;;;5033527;28;20184;-71
2021/09/08 07:00:48;;;;;;;16.33;14.30;;;17.20;99.90;;;;;;5053622;28;20194;-71
2021/09/08 07:03:13;;;;;;;15.03;13.40;;;17.30;99.90;;;;;;5053701;28;20182;-72
2021/09/08 07:05:39;;;;;;;16.30;14.27;;;17.30;99.90;;;;;;5052459;28;20746;-70
2021/09/08 07:08:05;;;;;;;18.63;12.90;;;17.40;99.90;;;;;;5052071;28;20221;-71
2021/09/08 07:10:31;;;;;;;19.63;13.40;;;17.40;99.90;;;;;;5054696;28;20198;-70
2021/09/08 07:12:57;;;;;;;16.60;12.90;;;17.50;99.90;;;;;;5055562;28;20464;-72
2021/09/08 07:15:22;;;;;;;16.60;13.50;;;17.60;99.90;;;;;;5050731;28;20442;-71
2021/09/08 07:17:48;;;;;;;14.10;12.57;;;17.70;99.90;;;;;;5050724;28;20189;-71
2021/09/08 07:20:13;;;;;;;17.60;12.90;;;17.80;99.90;;;;;;5050513;28;20221;-71
2021/09/08 07:22:39;;;;;;;16.47;13.80;;;17.90;99.90;;;;;;5051266;28;20176;-71
2021/09/08 07:25:05;;;;;;;17.77;14.00;;;18.00;99.90;;;;;;5050495;28;20524;-71
2021/09/08 07:27:31;;;;;;;18.30;12.90;;;18.10;99.90;;;;;;5051027;28;20202;-71
2021/09/08 07:29:56;;;;;;;16.10;13.73;;;18.20;99.90;;;;;;5050866;28;20437;-71
2021/09/08 07:32:22;;;;;;;18.07;13.63;;;18.30;99.90;;;;;;5050578;28;20181;-70
2021/09/08 07:34:48;;;;;;;16.83;13.50;;;18.30;99.90;;;;;;5032196;28;20213;-70
2021/09/08 07:37:15;;;;;;;15.50;13.80;;;18.40;99.90;;;;;;5050618;28;20213;-70
2021/09/08 07:39:40;;;;;;;20.83;13.37;;;18.50;99.90;;;;;;5050956;28;20467;-70
2021/09/08 07:42:06;;;;;;;19.87;14.67;;;18.60;99.90;;;;;;5032553;28;20466;-71
2021/09/08 07:44:32;;;;;;;18.60;14.80;;;18.70;99.90;;;;;;5051145;28;20182;-71
2021/09/08 07:46:57;;;;;;;18.40;13.00;;;18.80;99.90;;;;;;5050618;28;20664;-71
2021/09/08 07:49:23;;;;;;;16.17;14.13;;;18.90;99.90;;;;;;5031409;28;20190;-71
2021/09/08 07:51:49;;;;;;;13.63;12.23;;;19.00;99.90;;;;;;5049963;28;20274;-71
2021/09/08 07:54:14;;;;;;;15.30;13.07;;;19.10;99.90;;;;;;5049978;28;20201;-71
2021/09/08 07:56:40;;;;;;;14.87;13.30;;;19.10;99.90;;;;;;5048419;28;20216;-70
2021/09/08 07:59:06;;;;;;;13.53;12.13;;;19.20;99.90;;;;;;5030606;28;20198;-71
2021/09/08 08:01:32;;;;;;;12.57;11.37;;;19.30;99.90;;;;;;5049558;28;20241;-70
2021/09/08 08:03:58;;;;;;;13.03;11.43;;;19.50;99.90;;;;;;5031911;28;20228;-70
2021/09/08 08:06:24;;;;;;;12.57;11.27;;;19.60;99.90;;;;;;5049731;28;20794;-71
2021/09/08 08:08:50;;;;;;;12.87;11.50;;;19.80;99.90;;;;;;5048938;28;20478;-70
2021/09/08 08:11:16;;;;;;;12.30;11.10;;;19.90;99.90;;;;;;5048903;28;20533;-71
2021/09/08 08:13:41;;;;;;;12.57;11.30;;;20.10;99.90;;;;;;5049349;28;20214;-71
2021/09/08 08:16:08;;;;;;;13.07;11.67;;;20.20;99.90;;;;;;5052635;28;20627;-72
2021/09/08 08:18:33;;;;;;;12.57;11.23;;;20.30;99.90;;;;;;5052959;28;20612;-71
2021/09/08 08:20:59;;;;;;;12.93;11.53;;;20.40;99.90;;;;;;5054025;28;20428;-71
2021/09/08 08:23:25;;;;;;;12.33;11.13;;;20.50;99.90;;;;;;5053637;28;20227;-71
2021/09/08 08:25:50;;;;;;;14.20;11.03;;;20.60;99.90;;;;;;5053416;28;20629;-71
2021/09/08 08:28:16;;;;;;;11.57;10.47;;;20.70;99.90;;;;;;5053450;28;20248;-71
2021/09/08 08:30:42;;;;;;;11.57;10.47;;;20.90;99.90;;;;;;5053067;28;20210;-71
2021/09/08 08:33:07;;;;;;;11.77;10.57;;;20.90;99.90;;;;;;5053071;28;20651;-71
2021/09/08 08:35:34;;;;;;;13.27;10.07;;;21.10;99.90;;;;;;5054235;28;20855;-71
2021/09/08 08:38:00;;;;;;;16.53;10.80;;;21.20;99.90;;;;;;5053559;28;20178;-71
2021/09/08 08:40:25;;;;;;;11.80;10.60;;;21.40;99.90;;;;;;5052606;28;20459;-71
2021/09/08 08:42:51;;;;;;;12.30;10.43;;;21.40;99.90;;;;;;5053007;28;20554;-71
2021/09/08 08:45:17;;;;;;;11.53;10.50;;;21.50;99.90;;;;;;5035131;28;20320;-71
2021/09/08 08:47:43;;;;;;;11.50;10.40;;;21.60;99.90;;;;;;5052891;28;20655;-71
2021/09/08 08:50:11;;;;;;;11.20;9.43;;;21.70;99.90;;;;;;5030546;28;20429;-71
2021/09/08 08:52:37;;;;;;;11.73;10.63;;;21.80;99.90;;;;;;5041359;28;20178;-72
2021/09/08 08:55:04;;;;;;;13.50;10.50;;;21.90;99.90;;;;;;5045302;28;20438;-71
2021/09/08 08:57:29;;;;;;;12.37;11.07;;;22.00;99.90;;;;;;5033594;28;20418;-71
2021/09/08 08:59:55;;;;;;;11.43;10.33;;;22.20;99.90;;;;;;5033660;28;20710;-71
2021/09/08 09:02:28;;;;;;;11.97;10.80;;;22.30;99.90;;;;;;5048180;28;20193;-71
2021/09/08 09:04:59;;;;;;;11.73;10.50;;;22.40;99.90;;;;;;5053363;28;20674;-71
2021/09/08 09:07:32;;;;;;;11.67;10.50;;;22.50;99.90;;;;;;5053278;28;20507;-71
2021/09/08 09:10:09;;;;;;;11.23;10.07;;;22.60;99.90;;;;;;5053183;28;20413;-71
2021/09/08 09:12:41;;;;;;;11.60;10.50;;;22.70;99.90;;;;;;5053161;28;21180;-71
2021/09/08 09:15:12;;;;;;;11.20;10.10;;;22.80;99.90;;;;;;5052255;28;20425;-71
2021/09/08 09:17:39;;;;;;;11.07;9.97;;;22.90;99.90;;;;;;5052797;28;20405;-71
2021/09/08 09:20:10;;;;;;;11.93;10.73;;;23.00;99.90;;;;;;5034942;28;20448;-71
2021/09/08 09:22:47;;;;;;;15.30;11.57;;;23.00;99.90;;;;;;5034459;28;20420;-71
2021/09/08 09:25:16;;;;;;;15.53;11.33;;;23.10;99.90;;;;;;5052131;28;20511;-71
2021/09/08 09:27:50;;;;;;;12.27;10.07;;;23.20;99.90;;;;;;5050970;28;20404;-72
2021/09/08 09:30:21;;;;;;;11.03;9.93;;;23.30;99.90;;;;;;5051573;28;20432;-71
2021/09/08 09:32:49;;;;;;;11.13;10.02;;;23.40;99.80;;;;;;5051192;28;20630;-71
2021/09/08 09:35:22;;;;;;;11.10;10.10;;;23.50;99.30;;;;;;5052070;28;20206;-71
2021/09/08 09:37:53;;;;;;;10.60;9.60;;;23.60;99.30;;;;;;5052883;28;20900;-71
2021/09/08 09:40:26;;;;;;;10.47;9.47;;;23.70;98.60;;;;;;5046422;28;20452;-71
2021/09/08 09:42:52;;;;;;;11.17;10.17;;;23.80;98.40;;;;;;5052558;28;20475;-71
2021/09/08 09:45:18;;;;;;;10.63;9.53;;;23.80;98.20;;;;;;5071447;28;20451;-71
2021/09/08 09:47:48;;;;;;;9.03;8.23;;;24.00;97.60;;;;;;5062292;28;20420;-71
2021/09/08 09:50:17;;;;;;;9.70;8.80;;;24.00;96.90;;;;;;5051219;28;20441;-71
2021/09/08 09:52:52;;;;;;;11.90;9.53;;;24.10;97.10;;;;;;5067462;28;20430;-70
2021/09/08 09:55:18;;;;;;;12.00;10.80;;;24.10;96.70;;;;;;5072222;28;20395;-71
2021/09/08 09:57:45;;;;;;;12.27;10.80;;;24.00;96.20;;;;;;5060135;28;20519;-71
2021/09/08 10:00:16;;;;;;;12.07;10.97;;;24.00;96.40;;;;;;5062785;28;20432;-71
2021/09/08 10:02:43;;;;;;;12.70;10.90;;;24.20;96.80;;;;;;5055570;28;20427;-71
2021/09/08 10:05:09;;;;;;;14.20;11.80;;;24.30;96.60;;;;;;5054660;28;20407;-71
2021/09/08 10:07:36;;;;;;;23.33;14.20;;;24.30;96.50;;;;;;5059786;28;20444;-72
2021/09/08 10:10:07;;;;;;;20.00;18.10;;;24.40;96.60;;;;;;5043692;28;20795;-71
2021/09/08 10:12:41;;;;;;;12.97;10.00;;;24.50;97.00;;;;;;5057351;28;20452;-69
2021/09/08 10:15:07;;;;;;;12.80;11.20;;;24.50;95.40;;;;;;5045652;28;20442;-70
2021/09/08 10:17:41;;;;;;;10.70;9.70;;;24.50;95.60;;;;;;5053906;28;20198;-71
2021/09/08 10:20:08;;;;;;;10.90;9.80;;;24.60;95.50;;;;;;5048377;28;20464;-71
2021/09/08 10:22:39;;;;;;;10.83;9.73;;;24.70;95.50;;;;;;5057386;28;20441;-71
2021/09/08 10:25:20;;;;;;;10.90;9.80;;;24.80;95.30;;;;;;5053853;28;20893;-71
2021/09/08 10:27:51;;;;;;;10.37;9.47;;;24.90;93.90;;;;;;5057940;28;20617;-72
2021/09/08 10:30:18;;;;;;;10.97;9.97;;;24.90;93.70;;;;;;5050217;28;20473;-72
2021/09/08 10:32:44;;;;;;;11.07;10.03;;;25.00;93.60;;;;;;5046647;28;20441;-72
2021/09/08 10:35:16;;;;;;;10.27;9.30;;;25.00;93.00;;;;;;5058738;28;20436;-72
2021/09/08 10:37:48;;;;;;;10.63;9.63;;;25.10;93.00;;;;;;5039520;28;20440;-72
2021/09/08 10:40:18;;;;;;;10.57;9.63;;;25.10;93.20;;;;;;5026821;28;20854;-71
2021/09/08 10:42:47;;;;;;;10.60;9.70;;;25.20;92.70;;;;;;5061396;28;20428;-72
2021/09/08 10:45:22;;;;;;;12.30;9.83;;;25.20;92.60;;;;;;5038062;28;20407;-71
2021/09/08 10:47:48;;;;;;;10.47;9.43;;;25.20;92.50;;;;;;5070871;28;20901;-73
2021/09/08 10:50:14;;;;;;;10.27;9.27;;;25.30;92.10;;;;;;5070326;28;20966;-71
2021/09/08 10:52:43;;;;;;;10.27;9.27;;;25.30;92.40;;;;;;5068731;28;20412;-70
2021/09/08 10:55:08;;;;;;;10.40;9.40;;;25.30;92.80;;;;;;5067291;28;20196;-72
2021/09/08 10:57:48;;;;;;;11.20;10.10;;;25.20;92.30;;;;;;5060299;28;20771;-71
2021/09/08 11:00:20;;;;;;;9.57;8.77;;;25.30;92.60;;;;;;5070404;28;20193;-70
2021/09/08 11:02:46;;;;;;;9.50;8.70;;;25.30;92.90;;;;;;5070718;28;20534;-71
2021/09/08 11:05:13;;;;;;;10.90;9.90;;;25.30;92.40;;;;;;5054130;28;20491;-71
2021/09/08 11:07:47;;;;;;;10.87;9.87;;;25.30;91.90;;;;;;5041543;28;20189;-71
2021/09/08 11:10:22;;;;;;;10.67;9.37;;;25.10;92.30;;;;;;5062019;28;20972;-71
2021/09/08 11:12:50;;;;;;;18.80;10.03;;;25.10;92.80;;;;;;5053440;28;20442;-72
2021/09/08 11:15:20;;;;;;;10.43;9.53;;;25.20;92.70;;;;;;5054253;28;20459;-71
2021/09/08 11:17:55;;;;;;;10.53;9.53;;;25.30;92.50;;;;;;5052268;28;20944;-70
2021/09/08 11:20:21;;;;;;;10.07;9.07;;;25.30;92.10;;;;;;5070229;28;20434;-71
2021/09/08 11:23:13;;;;;;;10.40;9.50;;;25.20;91.90;;;;;;5069197;28;20398;-71
2021/09/08 11:25:43;;;;;;;9.60;8.80;;;25.30;92.00;;;;;;5060267;28;20563;-71
2021/09/08 11:28:09;;;;;;;9.47;8.57;;;25.30;92.20;;;;;;5062026;28;20420;-72
2021/09/08 11:30:41;;;;;;;9.90;9.00;;;25.30;92.10;;;;;;5070700;28;20442;-71
2021/09/08 11:33:08;;;;;;;10.27;9.37;;;25.40;91.90;;;;;;5051182;28;20491;-71
2021/09/08 11:35:34;;;;;;;10.37;9.17;;;25.40;91.80;;;;;;5053238;28;20421;-71
2021/09/08 11:38:01;;;;;;;9.63;8.83;;;25.40;91.80;;;;;;5060404;28;20411;-71
2021/09/08 11:40:27;;;;;;;9.20;8.30;;;25.50;91.70;;;;;;5064952;28;20458;-73
2021/09/08 11:42:53;;;;;;;9.57;8.67;;;25.40;91.50;;;;;;5070301;28;20718;-73
2021/09/08 11:45:36;;;;;;;9.60;8.70;;;25.40;91.50;;;;;;5070185;28;20404;-72
2021/09/08 11:48:01;;;;;;;10.23;9.32;;;25.30;91.60;;;;;;5032526;28;20792;-72
2021/09/08 11:50:27;;;;;;;10.20;9.30;;;25.40;91.70;;;;;;5065954;28;20213;-71
2021/09/08 11:52:55;;;;;;;10.20;9.30;;;25.30;91.90;;;;;;5056942;28;20253;-71
2021/09/08 11:55:33;;;;;;;11.20;8.97;;;25.30;91.70;;;;;;5054686;28;20170;-70
2021/09/08 11:58:19;;;;;;;9.40;8.60;;;25.40;91.50;;;;;;5054697;28;20429;-72
2021/09/08 12:01:08;;;;;;;10.03;8.60;;;25.40;91.40;;;;;;5060806;28;20526;-72
2021/09/08 12:03:47;;;;;;;8.77;8.07;;;25.30;91.60;;;;;;5047052;28;20411;-71
2021/09/08 12:06:21;;;;;;;9.73;8.60;;;25.30;91.40;;;;;;5070692;28;20415;-72
2021/09/08 12:08:48;;;;;;;9.00;8.10;;;25.20;91.50;;;;;;5057151;28;20463;-73
2021/09/08 12:11:40;;;;;;;10.37;9.47;;;25.30;91.80;;;;;;5052242;28;20543;-71
2021/09/08 12:14:19;;;;;;;9.40;8.60;;;25.20;92.10;;;;;;5037584;28;20467;-72
2021/09/08 12:16:52;;;;;;;10.70;9.23;;;25.10;92.20;;;;;;5070102;28;20916;-72
2021/09/08 12:19:24;;;;;;;9.17;8.37;;;25.10;92.40;;;;;;5065392;28;20423;-72
2021/09/08 12:21:50;;;;;;;9.67;8.77;;;25.10;92.30;;;;;;5070373;28;20436;-72
2021/09/08 12:24:27;;;;;;;9.60;8.57;;;25.20;92.00;;;;;;5066182;28;20407;-72
2021/09/08 12:26:54;;;;;;;9.00;8.20;;;25.20;91.80;;;;;;5073578;28;20666;-72
2021/09/08 12:29:19;;;;;;;8.80;8.00;;;25.20;91.90;;;;;;5070470;28;20411;-72
2021/09/08 12:31:53;;;;;;;9.33;8.53;;;25.10;92.00;;;;;;5066196;28;20434;-71